sensor_id;sensor_type;location;lat;lon;timestamp;pressure;altitude;pressure_sealevel;temperature;humidity
84051;BME280;74137;50.136;19.040;2024-03-06T00:03:28;99037.57;;;1.85;75.09
84051;BME280;74137;50.136;19.040;2024-03-06T00:06:29;99041.41;;;1.83;75.01
84051;BME280;74137;50.136;19.040;2024-03-06T00:09:00;99042.30;;;1.81;74.94
84051;BME280;74137;50.136;19.040;2024-03-06T00:11:31;99042.02;;;1.79;75.02
84051;BME280;74137;50.136;19.040;2024-03-06T00:14:00;99037.88;;;1.77;75.05
84051;BME280;74137;50.136;19.040;2024-03-06T00:24:25;99049.48;;;1.67;74.99
84051;BME280;74137;50.136;19.040;2024-03-06T00:43:48;99052.85;;;1.41;74.81
84051;BME280;74137;50.136;19.040;2024-03-06T01:19:31;99059.30;;;1.39;73.94
84051;BME280;74137;50.136;19.040;2024-03-06T01:26:27;99062.71;;;1.08;74.13
84051;BME280;74137;50.136;19.040;2024-03-06T01:35:43;99076.18;;;0.84;74.71
84051;BME280;74137;50.136;19.040;2024-03-06T01:44:58;99081.50;;;0.61;75.09
84051;BME280;74137;50.136;19.040;2024-03-06T01:52:05;99088.48;;;0.55;75.23
84051;BME280;74137;50.136;19.040;2024-03-06T01:55:30;99091.77;;;0.54;75.25
84051;BME280;74137;50.136;19.040;2024-03-06T01:58:09;99093.50;;;0.54;75.61
84051;BME280;74137;50.136;19.040;2024-03-06T02:01:57;99090.77;;;0.52;75.72
84051;BME280;74137;50.136;19.040;2024-03-06T02:17:33;99088.66;;;0.41;75.63
84051;BME280;74137;50.136;19.040;2024-03-06T02:20:47;99091.45;;;0.38;75.72
84051;BME280;74137;50.136;19.040;2024-03-06T02:23:19;99090.28;;;0.34;75.77
84051;BME280;74137;50.136;19.040;2024-03-06T02:30:21;99086.36;;;0.30;75.69
84051;BME280;74137;50.136;19.040;2024-03-06T02:40:08;99089.83;;;0.27;76.39
84051;BME280;74137;50.136;19.040;2024-03-06T02:47:31;99085.13;;;0.17;76.24
84051;BME280;74137;50.136;19.040;2024-03-06T03:15:49;99099.00;;;0.27;75.63
84051;BME280;74137;50.136;19.040;2024-03-06T03:19:23;99103.41;;;0.17;76.16
84051;BME280;74137;50.136;19.040;2024-03-06T03:21:55;99103.12;;;0.13;75.84
84051;BME280;74137;50.136;19.040;2024-03-06T03:24:24;99106.96;;;0.09;76.30
84051;BME280;74137;50.136;19.040;2024-03-06T03:26:56;99105.98;;;0.05;76.16
84051;BME280;74137;50.136;19.040;2024-03-06T03:29:25;99106.67;;;0.02;76.23
84051;BME280;74137;50.136;19.040;2024-03-06T03:31:53;99105.84;;;0.00;76.44
84051;BME280;74137;50.136;19.040;2024-03-06T03:34:23;99110.86;;;-0.03;76.26
84051;BME280;74137;50.136;19.040;2024-03-06T03:36:52;99110.37;;;-0.05;76.22
84051;BME280;74137;50.136;19.040;2024-03-06T03:39:20;99110.77;;;-0.10;76.17
84051;BME280;74137;50.136;19.040;2024-03-06T03:41:53;99108.38;;;-0.12;76.52
84051;BME280;74137;50.136;19.040;2024-03-06T03:53:46;99116.85;;;-0.15;76.70
84051;BME280;74137;50.136;19.040;2024-03-06T03:57:04;99113.58;;;-0.15;77.01
84051;BME280;74137;50.136;19.040;2024-03-06T04:00:02;99114.60;;;-0.15;76.82
84051;BME280;74137;50.136;19.040;2024-03-06T04:03:01;99114.95;;;-0.14;76.74
84051;BME280;74137;50.136;19.040;2024-03-06T04:09:11;99121.16;;;-0.13;76.75
84051;BME280;74137;50.136;19.040;2024-03-06T04:11:55;99121.17;;;-0.15;76.81
84051;BME280;74137;50.136;19.040;2024-03-06T04:15:02;99115.98;;;-0.15;76.72
84051;BME280;74137;50.136;19.040;2024-03-06T04:17:32;99117.19;;;-0.14;77.11
84051;BME280;74137;50.136;19.040;2024-03-06T04:20:01;99119.09;;;-0.15;76.60
84051;BME280;74137;50.136;19.040;2024-03-06T04:22:32;99124.95;;;-0.15;76.82
84051;BME280;74137;50.136;19.040;2024-03-06T04:25:01;99125.84;;;-0.16;77.02
84051;BME280;74137;50.136;19.040;2024-03-06T04:27:34;99129.30;;;-0.17;76.72
84051;BME280;74137;50.136;19.040;2024-03-06T04:30:04;99127.75;;;-0.17;77.16
84051;BME280;74137;50.136;19.040;2024-03-06T04:35:23;99130.34;;;-0.17;77.01
84051;BME280;74137;50.136;19.040;2024-03-06T04:37:52;99134.64;;;-0.16;77.26
84051;BME280;74137;50.136;19.040;2024-03-06T04:40:21;99132.73;;;-0.14;77.34
84051;BME280;74137;50.136;19.040;2024-03-06T05:01:33;99141.12;;;-0.07;77.58
84051;BME280;74137;50.136;19.040;2024-03-06T05:04:05;99143.86;;;-0.05;77.87
84051;BME280;74137;50.136;19.040;2024-03-06T05:06:54;99145.56;;;-0.02;77.72
84051;BME280;74137;50.136;19.040;2024-03-06T05:16:41;99147.57;;;0.04;77.86
84051;BME280;74137;50.136;19.040;2024-03-06T05:19:48;99148.57;;;0.07;78.03
84051;BME280;74137;50.136;19.040;2024-03-06T05:23:00;99155.80;;;0.10;77.82
84051;BME280;74137;50.136;19.040;2024-03-06T05:25:57;99157.16;;;0.13;77.82
84051;BME280;74137;50.136;19.040;2024-03-06T05:28:59;99158.20;;;0.13;77.84
84051;BME280;74137;50.136;19.040;2024-03-06T05:35:13;99158.39;;;0.11;77.74
84051;BME280;74137;50.136;19.040;2024-03-06T05:37:59;99160.14;;;0.09;77.75
84051;BME280;74137;50.136;19.040;2024-03-06T06:01:29;99184.89;;;0.01;78.74
84051;BME280;74137;50.136;19.040;2024-03-06T06:04:01;99188.64;;;0.07;78.78
84051;BME280;74137;50.136;19.040;2024-03-06T06:06:33;99191.03;;;0.11;78.58
84051;BME280;74137;50.136;19.040;2024-03-06T06:09:46;99194.77;;;0.15;78.52
84051;BME280;74137;50.136;19.040;2024-03-06T06:12:49;99194.19;;;0.23;78.89
84051;BME280;74137;50.136;19.040;2024-03-06T06:15:18;99194.65;;;0.29;78.76
84051;BME280;74137;50.136;19.040;2024-03-06T06:17:47;99195.98;;;0.34;78.52
84051;BME280;74137;50.136;19.040;2024-03-06T06:20:40;99198.55;;;0.38;78.86
84051;BME280;74137;50.136;19.040;2024-03-06T06:23:14;99201.77;;;0.44;78.81
84051;BME280;74137;50.136;19.040;2024-03-06T06:25:48;99202.05;;;0.51;78.85
84051;BME280;74137;50.136;19.040;2024-03-06T06:28:21;99199.54;;;0.58;78.97
84051;BME280;74137;50.136;19.040;2024-03-06T06:30:52;99199.30;;;0.65;78.60
84051;BME280;74137;50.136;19.040;2024-03-06T06:33:21;99196.13;;;0.71;78.61
84051;BME280;74137;50.136;19.040;2024-03-06T06:35:53;99196.40;;;0.78;78.68
84051;BME280;74137;50.136;19.040;2024-03-06T06:38:22;99200.94;;;0.87;78.44
84051;BME280;74137;50.136;19.040;2024-03-06T06:40:51;99202.42;;;0.93;78.51
84051;BME280;74137;50.136;19.040;2024-03-06T06:43:20;99202.39;;;0.98;78.40
84051;BME280;74137;50.136;19.040;2024-03-06T06:45:50;99200.28;;;1.00;78.08
84051;BME280;74137;50.136;19.040;2024-03-06T06:48:23;99201.13;;;1.02;78.16
84051;BME280;74137;50.136;19.040;2024-03-06T06:50:57;99203.02;;;1.02;77.86
84051;BME280;74137;50.136;19.040;2024-03-06T06:53:30;99202.98;;;1.05;78.04
84051;BME280;74137;50.136;19.040;2024-03-06T06:56:01;99204.29;;;1.12;78.07
84051;BME280;74137;50.136;19.040;2024-03-06T07:14:52;99204.06;;;1.54;77.75
84051;BME280;74137;50.136;19.040;2024-03-06T07:17:48;99203.27;;;1.62;77.52
84051;BME280;74137;50.136;19.040;2024-03-06T07:22:17;99203.44;;;1.72;77.43
84051;BME280;74137;50.136;19.040;2024-03-06T07:26:46;99201.15;;;1.87;77.55
84051;BME280;74137;50.136;19.040;2024-03-06T07:31:04;99202.61;;;2.04;77.46
84051;BME280;74137;50.136;19.040;2024-03-06T07:35:33;99202.89;;;2.19;77.07
84051;BME280;74137;50.136;19.040;2024-03-06T07:42:33;99205.34;;;2.37;76.59
84051;BME280;74137;50.136;19.040;2024-03-06T07:51:48;99211.84;;;2.60;75.83
84051;BME280;74137;50.136;19.040;2024-03-06T07:57:27;99214.34;;;2.75;75.56
84051;BME280;74137;50.136;19.040;2024-03-06T08:00:02;99211.55;;;2.85;75.51
84051;BME280;74137;50.136;19.040;2024-03-06T08:05:21;99220.77;;;3.01;75.63
84051;BME280;74137;50.136;19.040;2024-03-06T08:07:50;99221.88;;;3.07;75.34
84051;BME280;74137;50.136;19.040;2024-03-06T08:13:01;99223.79;;;3.15;75.01
84051;BME280;74137;50.136;19.040;2024-03-06T08:15:29;99224.35;;;3.22;75.04
84051;BME280;74137;50.136;19.040;2024-03-06T08:17:57;99228.33;;;3.30;74.92
84051;BME280;74137;50.136;19.040;2024-03-06T08:20:28;99225.50;;;3.41;74.66
84051;BME280;74137;50.136;19.040;2024-03-06T08:22:58;99225.13;;;3.50;74.18
84051;BME280;74137;50.136;19.040;2024-03-06T08:25:37;99224.34;;;3.62;74.41
84051;BME280;74137;50.136;19.040;2024-03-06T08:28:19;99223.09;;;3.80;74.36
84051;BME280;74137;50.136;19.040;2024-03-06T08:30:48;99217.63;;;3.98;74.01
84051;BME280;74137;50.136;19.040;2024-03-06T08:33:49;99210.08;;;4.15;74.07
84051;BME280;74137;50.136;19.040;2024-03-06T08:36:19;99215.75;;;4.25;73.76
84051;BME280;74137;50.136;19.040;2024-03-06T08:38:49;99211.95;;;4.30;73.14
84051;BME280;74137;50.136;19.040;2024-03-06T08:41:19;99208.41;;;4.26;72.28
84051;BME280;74137;50.136;19.040;2024-03-06T08:49:24;99209.56;;;4.49;71.45
84051;BME280;74137;50.136;19.040;2024-03-06T08:51:57;99204.95;;;4.46;71.49
84051;BME280;74137;50.136;19.040;2024-03-06T08:57:33;99219.86;;;4.48;71.24
84051;BME280;74137;50.136;19.040;2024-03-06T09:00:00;99223.43;;;4.51;71.14
84051;BME280;74137;50.136;19.040;2024-03-06T09:02:34;99217.23;;;4.56;70.84
84051;BME280;74137;50.136;19.040;2024-03-06T09:05:32;99218.69;;;4.79;70.36
84051;BME280;74137;50.136;19.040;2024-03-06T09:08:15;99222.30;;;4.87;70.23
84051;BME280;74137;50.136;19.040;2024-03-06T09:13:28;99217.95;;;4.87;69.30
84051;BME280;74137;50.136;19.040;2024-03-06T09:15:57;99214.58;;;4.90;69.30
84051;BME280;74137;50.136;19.040;2024-03-06T09:18:26;99216.69;;;4.95;69.28
84051;BME280;74137;50.136;19.040;2024-03-06T09:21:07;99215.11;;;5.01;68.91
84051;BME280;74137;50.136;19.040;2024-03-06T09:23:37;99214.71;;;5.10;69.18
84051;BME280;74137;50.136;19.040;2024-03-06T09:28:49;99208.24;;;5.35;68.96
84051;BME280;74137;50.136;19.040;2024-03-06T09:31:19;99208.98;;;5.50;68.37
84051;BME280;74137;50.136;19.040;2024-03-06T09:36:56;99204.59;;;5.51;66.30
84051;BME280;74137;50.136;19.040;2024-03-06T09:42:25;99200.46;;;5.44;66.99
84051;BME280;74137;50.136;19.040;2024-03-06T09:44:54;99204.56;;;5.53;67.15
84051;BME280;74137;50.136;19.040;2024-03-06T09:53:46;99214.20;;;5.57;65.84
84051;BME280;74137;50.136;19.040;2024-03-06T09:56:26;99215.79;;;5.62;66.27
84051;BME280;74137;50.136;19.040;2024-03-06T09:58:59;99212.14;;;5.67;66.16
84051;BME280;74137;50.136;19.040;2024-03-06T10:04:24;99212.64;;;5.79;65.73
84051;BME280;74137;50.136;19.040;2024-03-06T10:07:05;99212.80;;;5.74;65.54
84051;BME280;74137;50.136;19.040;2024-03-06T10:15:29;99216.90;;;5.60;64.48
84051;BME280;74137;50.136;19.040;2024-03-06T10:24:02;99219.94;;;5.28;64.78
84051;BME280;74137;50.136;19.040;2024-03-06T10:26:32;99217.73;;;5.26;65.22
84051;BME280;74137;50.136;19.040;2024-03-06T10:32:16;99213.03;;;5.19;65.01
84051;BME280;74137;50.136;19.040;2024-03-06T10:40:35;99218.30;;;5.18;65.53
84051;BME280;74137;50.136;19.040;2024-03-06T10:43:34;99221.89;;;5.20;65.97
84051;BME280;74137;50.136;19.040;2024-03-06T10:52:30;99222.17;;;5.22;65.71
84051;BME280;74137;50.136;19.040;2024-03-06T10:55:01;99221.96;;;5.12;65.58
84051;BME280;74137;50.136;19.040;2024-03-06T10:58:09;99225.45;;;4.99;65.49
84051;BME280;74137;50.136;19.040;2024-03-06T11:06:31;99221.89;;;4.89;66.28
84051;BME280;74137;50.136;19.040;2024-03-06T11:09:34;99215.90;;;4.86;66.46
84051;BME280;74137;50.136;19.040;2024-03-06T11:12:36;99217.55;;;4.82;66.57
84051;BME280;74137;50.136;19.040;2024-03-06T11:15:19;99211.19;;;4.73;66.68
84051;BME280;74137;50.136;19.040;2024-03-06T11:17:53;99208.04;;;4.68;66.80
84051;BME280;74137;50.136;19.040;2024-03-06T11:23:34;99205.38;;;4.56;67.16
84051;BME280;74137;50.136;19.040;2024-03-06T11:26:37;99204.48;;;4.51;67.54
84051;BME280;74137;50.136;19.040;2024-03-06T11:32:07;99198.53;;;4.39;67.84
84051;BME280;74137;50.136;19.040;2024-03-06T11:34:37;99198.89;;;4.38;68.11
84051;BME280;74137;50.136;19.040;2024-03-06T11:37:07;99192.46;;;4.32;68.29
84051;BME280;74137;50.136;19.040;2024-03-06T11:39:51;99193.86;;;4.31;68.44
84051;BME280;74137;50.136;19.040;2024-03-06T11:42:34;99188.20;;;4.28;68.79
84051;BME280;74137;50.136;19.040;2024-03-06T11:45:16;99190.09;;;4.29;69.06
84051;BME280;74137;50.136;19.040;2024-03-06T11:48:02;99194.39;;;4.31;69.34
84051;BME280;74137;50.136;19.040;2024-03-06T11:50:34;99195.60;;;4.31;69.18
84051;BME280;74137;50.136;19.040;2024-03-06T11:53:06;99194.73;;;4.31;69.67
84051;BME280;74137;50.136;19.040;2024-03-06T11:55:37;99193.61;;;4.34;69.75
84051;BME280;74137;50.136;19.040;2024-03-06T11:58:06;99191.14;;;4.36;69.81
84051;BME280;74137;50.136;19.040;2024-03-06T12:00:36;99190.11;;;4.35;69.92
84051;BME280;74137;50.136;19.040;2024-03-06T12:03:04;99191.55;;;4.34;70.05
84051;BME280;74137;50.136;19.040;2024-03-06T12:05:35;99189.89;;;4.31;70.23
84051;BME280;74137;50.136;19.040;2024-03-06T12:08:02;99189.73;;;4.29;70.31
84051;BME280;74137;50.136;19.040;2024-03-06T12:10:31;99188.11;;;4.32;70.61
84051;BME280;74137;50.136;19.040;2024-03-06T12:12:59;99187.77;;;4.32;70.86
84051;BME280;74137;50.136;19.040;2024-03-06T12:15:26;99188.40;;;4.34;70.80
84051;BME280;74137;50.136;19.040;2024-03-06T12:17:54;99187.12;;;4.37;71.03
84051;BME280;74137;50.136;19.040;2024-03-06T12:20:24;99187.86;;;4.42;71.15
84051;BME280;74137;50.136;19.040;2024-03-06T12:22:52;99186.32;;;4.47;71.32
84051;BME280;74137;50.136;19.040;2024-03-06T12:25:23;99185.81;;;4.47;71.14
84051;BME280;74137;50.136;19.040;2024-03-06T12:27:53;99181.61;;;4.48;71.19
84051;BME280;74137;50.136;19.040;2024-03-06T12:30:22;99183.46;;;4.50;71.40
84051;BME280;74137;50.136;19.040;2024-03-06T12:33:00;99183.05;;;4.53;71.66
84051;BME280;74137;50.136;19.040;2024-03-06T12:35:34;99186.58;;;4.57;71.54
84051;BME280;74137;50.136;19.040;2024-03-06T12:38:12;99187.09;;;4.58;71.31
84051;BME280;74137;50.136;19.040;2024-03-06T12:40:40;99185.66;;;4.53;71.48
84051;BME280;74137;50.136;19.040;2024-03-06T12:43:09;99184.30;;;4.51;71.73
84051;BME280;74137;50.136;19.040;2024-03-06T12:45:36;99187.98;;;4.50;71.66
84051;BME280;74137;50.136;19.040;2024-03-06T12:48:05;99188.01;;;4.49;71.78
84051;BME280;74137;50.136;19.040;2024-03-06T12:50:40;99187.88;;;4.47;71.95
84051;BME280;74137;50.136;19.040;2024-03-06T12:53:18;99184.31;;;4.44;72.18
84051;BME280;74137;50.136;19.040;2024-03-06T12:55:47;99188.64;;;4.45;72.21
84051;BME280;74137;50.136;19.040;2024-03-06T12:58:15;99186.08;;;4.43;72.23
84051;BME280;74137;50.136;19.040;2024-03-06T13:00:43;99193.20;;;4.43;72.25
84051;BME280;74137;50.136;19.040;2024-03-06T13:03:12;99192.21;;;4.41;72.59
84051;BME280;74137;50.136;19.040;2024-03-06T13:05:39;99194.13;;;4.41;72.65
84051;BME280;74137;50.136;19.040;2024-03-06T13:08:07;99195.89;;;4.40;72.36
84051;BME280;74137;50.136;19.040;2024-03-06T13:10:36;99191.30;;;4.36;72.71
84051;BME280;74137;50.136;19.040;2024-03-06T13:13:03;99193.11;;;4.34;72.87
84051;BME280;74137;50.136;19.040;2024-03-06T13:15:31;99192.98;;;4.32;72.84
84051;BME280;74137;50.136;19.040;2024-03-06T13:17:59;99196.02;;;4.28;72.96
84051;BME280;74137;50.136;19.040;2024-03-06T13:20:28;99197.52;;;4.24;73.09
84051;BME280;74137;50.136;19.040;2024-03-06T13:22:57;99194.85;;;4.20;73.15
84051;BME280;74137;50.136;19.040;2024-03-06T13:25:26;99193.98;;;4.19;73.47
84051;BME280;74137;50.136;19.040;2024-03-06T13:27:56;99193.36;;;4.17;73.49
84051;BME280;74137;50.136;19.040;2024-03-06T13:30:26;99190.83;;;4.13;73.45
84051;BME280;74137;50.136;19.040;2024-03-06T13:32:55;99193.48;;;4.12;73.47
84051;BME280;74137;50.136;19.040;2024-03-06T13:35:24;99191.64;;;4.09;73.63
84051;BME280;74137;50.136;19.040;2024-03-06T13:37:52;99182.61;;;4.02;73.74
84051;BME280;74137;50.136;19.040;2024-03-06T13:40:21;99184.36;;;4.01;73.86
84051;BME280;74137;50.136;19.040;2024-03-06T13:42:51;99189.47;;;3.99;73.93
84051;BME280;74137;50.136;19.040;2024-03-06T13:45:20;99188.27;;;3.98;74.05
84051;BME280;74137;50.136;19.040;2024-03-06T13:47:49;99185.48;;;3.98;74.08
84051;BME280;74137;50.136;19.040;2024-03-06T13:50:17;99186.65;;;4.00;74.23
84051;BME280;74137;50.136;19.040;2024-03-06T13:52:45;99188.60;;;3.99;74.14
84051;BME280;74137;50.136;19.040;2024-03-06T13:55:13;99191.90;;;3.99;74.34
84051;BME280;74137;50.136;19.040;2024-03-06T13:57:42;99191.23;;;3.97;74.26
84051;BME280;74137;50.136;19.040;2024-03-06T14:00:10;99188.09;;;3.98;74.40
84051;BME280;74137;50.136;19.040;2024-03-06T14:02:46;99192.94;;;3.98;74.51
84051;BME280;74137;50.136;19.040;2024-03-06T14:19:08;99194.80;;;3.93;74.91
84051;BME280;74137;50.136;19.040;2024-03-06T14:21:38;99198.49;;;3.91;74.78
84051;BME280;74137;50.136;19.040;2024-03-06T14:24:13;99198.16;;;3.91;74.81
84051;BME280;74137;50.136;19.040;2024-03-06T14:26:53;99201.37;;;3.87;74.91
84051;BME280;74137;50.136;19.040;2024-03-06T14:29:29;99199.33;;;3.85;74.97
84051;BME280;74137;50.136;19.040;2024-03-06T14:32:44;99198.34;;;3.83;75.06
84051;BME280;74137;50.136;19.040;2024-03-06T14:35:15;99192.27;;;3.76;75.06
84051;BME280;74137;50.136;19.040;2024-03-06T14:37:57;99195.72;;;3.77;75.39
84051;BME280;74137;50.136;19.040;2024-03-06T14:40:30;99199.69;;;3.78;75.32
84051;BME280;74137;50.136;19.040;2024-03-06T14:43:23;99198.95;;;3.79;75.52
84051;BME280;74137;50.136;19.040;2024-03-06T14:46:10;99200.13;;;3.81;75.77
84051;BME280;74137;50.136;19.040;2024-03-06T14:49:10;99201.90;;;3.79;75.59
84051;BME280;74137;50.136;19.040;2024-03-06T14:52:03;99202.06;;;3.80;75.83
84051;BME280;74137;50.136;19.040;2024-03-06T14:54:44;99206.77;;;3.79;75.92
84051;BME280;74137;50.136;19.040;2024-03-06T14:57:15;99204.38;;;3.77;75.85
84051;BME280;74137;50.136;19.040;2024-03-06T15:00:09;99206.20;;;3.74;75.78
84051;BME280;74137;50.136;19.040;2024-03-06T15:03:03;99202.52;;;3.68;75.83
84051;BME280;74137;50.136;19.040;2024-03-06T15:06:22;99204.23;;;3.69;76.18
84051;BME280;74137;50.136;19.040;2024-03-06T15:10:08;99203.52;;;3.70;76.34
84051;BME280;74137;50.136;19.040;2024-03-06T15:13:12;99204.27;;;3.67;76.37
84051;BME280;74137;50.136;19.040;2024-03-06T15:15:57;99204.78;;;3.68;76.62
84051;BME280;74137;50.136;19.040;2024-03-06T15:19:17;99206.19;;;3.67;76.47
84051;BME280;74137;50.136;19.040;2024-03-06T15:22:37;99205.84;;;3.66;76.69
84051;BME280;74137;50.136;19.040;2024-03-06T15:26:04;99209.50;;;3.66;76.65
84051;BME280;74137;50.136;19.040;2024-03-06T15:29:05;99206.94;;;3.64;76.66
84051;BME280;74137;50.136;19.040;2024-03-06T15:32:06;99207.28;;;3.64;76.82
84051;BME280;74137;50.136;19.040;2024-03-06T15:35:48;99206.38;;;3.66;76.85
84051;BME280;74137;50.136;19.040;2024-03-06T15:39:01;99206.02;;;3.67;77.00
84051;BME280;74137;50.136;19.040;2024-03-06T15:42:18;99204.41;;;3.68;77.05
84051;BME280;74137;50.136;19.040;2024-03-06T15:45:33;99204.46;;;3.66;76.75
84051;BME280;74137;50.136;19.040;2024-03-06T15:49:18;99205.96;;;3.69;76.86
84051;BME280;74137;50.136;19.040;2024-03-06T15:52:20;99202.70;;;3.67;76.97
84051;BME280;74137;50.136;19.040;2024-03-06T15:56:11;99209.56;;;3.71;77.08
84051;BME280;74137;50.136;19.040;2024-03-06T15:59:25;99204.60;;;3.67;76.98
84051;BME280;74137;50.136;19.040;2024-03-06T16:02:37;99208.58;;;3.68;77.24
84051;BME280;74137;50.136;19.040;2024-03-06T16:05:42;99207.20;;;3.68;77.37
84051;BME280;74137;50.136;19.040;2024-03-06T16:09:03;99207.35;;;3.69;77.29
84051;BME280;74137;50.136;19.040;2024-03-06T16:11:44;99201.51;;;3.66;77.28
84051;BME280;74137;50.136;19.040;2024-03-06T16:14:44;99208.39;;;3.69;77.16
84051;BME280;74137;50.136;19.040;2024-03-06T16:17:31;99212.52;;;3.71;77.38
84051;BME280;74137;50.136;19.040;2024-03-06T16:20:28;99210.21;;;3.72;77.64
84051;BME280;74137;50.136;19.040;2024-03-06T16:23:27;99215.68;;;3.77;77.53
84051;BME280;74137;50.136;19.040;2024-03-06T16:26:31;99216.02;;;3.78;77.62
84051;BME280;74137;50.136;19.040;2024-03-06T16:29:17;99213.92;;;3.78;77.50
84051;BME280;74137;50.136;19.040;2024-03-06T16:31:57;99220.97;;;3.81;77.44
84051;BME280;74137;50.136;19.040;2024-03-06T16:35:00;99219.77;;;3.80;77.70
84051;BME280;74137;50.136;19.040;2024-03-06T16:38:24;99224.46;;;3.80;77.68
84051;BME280;74137;50.136;19.040;2024-03-06T16:42:12;99224.80;;;3.80;77.63
84051;BME280;74137;50.136;19.040;2024-03-06T16:48:22;99229.12;;;3.82;77.80
84051;BME280;74137;50.136;19.040;2024-03-06T16:51:55;99222.41;;;3.79;77.61
84051;BME280;74137;50.136;19.040;2024-03-06T16:59:20;99233.52;;;3.79;77.94
84051;BME280;74137;50.136;19.040;2024-03-06T17:37:12;99245.26;;;3.89;78.43
84051;BME280;74137;50.136;19.040;2024-03-06T17:54:50;99245.91;;;3.91;78.60
84051;BME280;74137;50.136;19.040;2024-03-06T17:58:19;99245.48;;;3.87;78.76
84051;BME280;74137;50.136;19.040;2024-03-06T18:00:48;99249.14;;;3.87;78.86
84051;BME280;74137;50.136;19.040;2024-03-06T18:10:34;99255.34;;;3.82;79.04
84051;BME280;74137;50.136;19.040;2024-03-06T18:14:02;99252.02;;;3.83;79.14
84051;BME280;74137;50.136;19.040;2024-03-06T18:23:25;99255.23;;;3.86;79.26
84051;BME280;74137;50.136;19.040;2024-03-06T18:33:04;99257.04;;;3.84;79.32
84051;BME280;74137;50.136;19.040;2024-03-06T18:46:00;99265.93;;;3.82;79.42
84051;BME280;74137;50.136;19.040;2024-03-06T18:49:17;99262.14;;;3.81;79.38
84051;BME280;74137;50.136;19.040;2024-03-06T18:59:09;99273.95;;;3.72;79.29
84051;BME280;74137;50.136;19.040;2024-03-06T19:03:01;99278.43;;;3.66;79.32
84051;BME280;74137;50.136;19.040;2024-03-06T19:05:59;99280.19;;;3.66;79.17
84051;BME280;74137;50.136;19.040;2024-03-06T19:16:13;99286.83;;;3.63;79.27
84051;BME280;74137;50.136;19.040;2024-03-06T19:19:39;99286.19;;;3.61;79.40
84051;BME280;74137;50.136;19.040;2024-03-06T19:22:26;99289.04;;;3.58;79.47
84051;BME280;74137;50.136;19.040;2024-03-06T19:28:05;99294.50;;;3.54;79.39
84051;BME280;74137;50.136;19.040;2024-03-06T19:36:48;99304.70;;;3.48;79.56
84051;BME280;74137;50.136;19.040;2024-03-06T19:44:01;99308.95;;;3.43;79.29
84051;BME280;74137;50.136;19.040;2024-03-06T21:21:17;99335.60;;;3.64;77.06
